createdAt,value
2019-01-11T00:01:49.936Z,4.33
2019-01-11T00:04:16.927Z,4.70
2019-01-11T00:06:45.712Z,4.60
2019-01-11T00:09:12.692Z,4.25
2019-01-11T00:11:39.675Z,5.00
2019-01-11T00:14:06.850Z,5.70
2019-01-11T00:16:33.963Z,5.92
2019-01-11T00:19:06.967Z,5.78
2019-01-11T00:21:30.113Z,6.15
2019-01-11T00:23:57.164Z,6.10
2019-01-11T00:26:24.216Z,6.10
2019-01-11T00:28:51.296Z,5.75
2019-01-11T00:31:18.268Z,6.67
2019-01-11T00:33:45.231Z,5.85
2019-01-11T00:36:12.247Z,4.97
2019-01-11T00:38:39.283Z,5.37
2019-01-11T00:41:06.305Z,5.40
2019-01-11T00:43:33.261Z,5.10
2019-01-11T00:46:00.257Z,4.70
2019-01-11T00:48:27.156Z,5.10
2019-01-11T00:50:54.105Z,5.45
2019-01-11T00:53:21.013Z,7.75
2019-01-11T00:55:48.069Z,10.50
2019-01-11T00:58:15.105Z,8.35
2019-01-11T01:00:41.327Z,9.45
2019-01-11T01:03:08.428Z,7.72
2019-01-11T01:05:35.353Z,8.08
2019-01-11T01:08:03.168Z,7.45
2019-01-11T01:10:30.145Z,7.00
2019-01-11T01:12:57.229Z,9.43
2019-01-11T01:15:24.350Z,9.53
2019-01-11T01:17:51.317Z,8.90
2019-01-11T01:20:18.466Z,8.60
2019-01-11T01:22:45.576Z,9.08
2019-01-11T01:25:13.169Z,9.70
2019-01-11T01:27:40.464Z,9.28
2019-01-11T01:30:10.774Z,8.43
2019-01-11T01:32:37.869Z,10.68
2019-01-11T01:35:04.967Z,9.43
2019-01-11T01:37:32.678Z,10.55
2019-01-11T01:39:59.820Z,12.05
2019-01-11T01:42:26.883Z,12.50
2019-01-11T01:44:54.121Z,10.32
2019-01-11T01:47:23.134Z,9.68
2019-01-11T01:49:50.090Z,11.88
2019-01-11T01:52:17.290Z,10.08
2019-01-11T01:54:44.413Z,10.20
2019-01-11T01:57:11.473Z,11.40
2019-01-11T01:59:38.520Z,10.53
2019-01-11T02:02:05.485Z,11.12
2019-01-11T02:04:32.533Z,11.12
2019-01-11T02:06:59.540Z,10.85
2019-01-11T02:09:26.424Z,10.90
2019-01-11T02:11:53.395Z,11.03
2019-01-11T02:14:20.272Z,11.38
2019-01-11T02:16:47.315Z,12.13
2019-01-11T02:19:14.417Z,12.63
2019-01-11T02:21:41.469Z,12.85
2019-01-11T02:24:08.441Z,11.97
2019-01-11T02:26:35.498Z,10.80
2019-01-11T02:29:02.505Z,9.98
2019-01-11T02:31:29.388Z,12.18
2019-01-11T02:33:56.453Z,11.35
2019-01-11T02:36:23.385Z,11.12
2019-01-11T02:38:50.309Z,10.80
2019-01-11T02:41:17.298Z,12.30
2019-01-11T02:43:44.337Z,11.75
2019-01-11T02:46:11.435Z,13.03
2019-01-11T02:48:38.409Z,12.15
2019-01-11T02:51:05.390Z,11.38
2019-01-11T02:53:32.440Z,12.00
2019-01-11T02:55:59.434Z,12.30
2019-01-11T02:58:26.446Z,12.20
2019-01-11T03:00:53.420Z,13.13
2019-01-11T03:03:20.347Z,10.28
2019-01-11T03:05:47.423Z,11.93
2019-01-11T03:08:14.470Z,11.22
2019-01-11T03:11:00.971Z,11.88
2019-01-11T03:13:27.914Z,11.68
2019-01-11T03:15:54.880Z,12.47
2019-01-11T03:18:22.036Z,12.47
2019-01-11T03:20:48.921Z,12.60
2019-01-11T03:23:15.973Z,13.55
2019-01-11T03:25:42.874Z,12.25
2019-01-11T03:28:09.850Z,12.43
2019-01-11T03:30:36.849Z,13.65
2019-01-11T03:33:03.941Z,13.43
2019-01-11T03:35:30.936Z,13.08
2019-01-11T03:37:57.993Z,13.00
2019-01-11T03:40:26.697Z,14.43
2019-01-11T03:42:53.810Z,13.00
2019-01-11T03:45:22.770Z,14.83
2019-01-11T03:47:49.773Z,12.78
2019-01-11T03:50:17.964Z,14.03
2019-01-11T03:52:45.058Z,14.10
2019-01-11T03:55:13.354Z,14.63
2019-01-11T03:57:40.241Z,14.13
2019-01-11T04:00:10.289Z,14.03
2019-01-11T04:02:37.347Z,13.65
2019-01-11T04:05:05.242Z,15.40
2019-01-11T04:07:32.166Z,14.73
2019-01-11T04:09:59.199Z,14.38
2019-01-11T04:12:26.534Z,15.18
2019-01-11T04:14:53.538Z,15.98
2019-01-11T04:17:20.416Z,14.95
2019-01-11T04:19:47.376Z,14.78
2019-01-11T04:22:19.213Z,14.85
2019-01-11T04:24:48.145Z,13.75
2019-01-11T04:27:15.072Z,15.90
2019-01-11T04:29:41.945Z,14.87
2019-01-11T04:32:08.873Z,14.98
2019-01-11T04:34:35.868Z,15.93
2019-01-11T04:37:02.842Z,16.35
2019-01-11T04:39:30.037Z,17.00
2019-01-11T04:41:56.994Z,16.62
2019-01-11T04:44:24.031Z,17.52
2019-01-11T04:46:51.053Z,16.70
2019-01-11T04:49:18.125Z,18.37
2019-01-11T04:51:45.219Z,15.95
2019-01-11T04:54:12.261Z,17.45
2019-01-11T04:56:39.278Z,17.20
2019-01-11T04:59:06.174Z,17.15
2019-01-11T05:01:33.151Z,18.02
2019-01-11T05:04:00.134Z,18.17
2019-01-11T05:06:27.144Z,17.15
2019-01-11T05:08:54.071Z,16.57
2019-01-11T05:11:20.989Z,17.27
2019-01-11T05:13:49.527Z,16.93
2019-01-11T05:16:16.414Z,17.35
2019-01-11T05:18:43.335Z,18.05
2019-01-11T05:21:10.206Z,18.27
2019-01-11T05:23:37.122Z,18.87
2019-01-11T05:26:04.006Z,18.57
2019-01-11T05:28:30.967Z,17.20
2019-01-11T05:30:58.546Z,16.70
2019-01-11T05:33:25.655Z,17.20
2019-01-11T05:35:52.715Z,18.02
2019-01-11T05:38:19.728Z,17.85
2019-01-11T05:40:46.774Z,17.92
2019-01-11T05:43:13.652Z,19.32
2019-01-11T05:45:40.598Z,18.75
2019-01-11T05:48:07.490Z,17.85
2019-01-11T05:50:34.461Z,17.90
2019-01-11T05:53:01.508Z,18.90
2019-01-11T05:55:44.805Z,17.55
2019-01-11T05:58:19.480Z,17.30
2019-01-11T06:00:46.461Z,19.07
2019-01-11T06:03:13.430Z,18.40
2019-01-11T06:05:40.331Z,19.32
2019-01-11T06:08:09.202Z,18.52
2019-01-11T06:10:36.269Z,18.90
2019-01-11T06:13:03.185Z,19.60
2019-01-11T06:15:30.062Z,18.80
2019-01-11T06:17:57.013Z,19.23
2019-01-11T06:20:30.023Z,18.55
2019-01-11T06:22:52.865Z,19.10
2019-01-11T06:25:19.879Z,19.70
2019-01-11T06:27:46.951Z,20.60
2019-01-11T06:30:13.964Z,18.82
2019-01-11T06:32:40.874Z,19.62
2019-01-11T06:35:07.890Z,20.65
2019-01-11T06:37:34.891Z,19.75
2019-01-11T06:40:02.566Z,18.12
2019-01-11T06:42:29.517Z,20.17
2019-01-11T06:44:57.509Z,18.60
2019-01-11T06:47:24.537Z,21.50
2019-01-11T06:49:51.452Z,20.75
2019-01-11T06:52:18.437Z,18.90
2019-01-11T06:54:45.372Z,19.98
2019-01-11T06:57:12.403Z,20.23
2019-01-11T06:59:39.340Z,19.55
2019-01-11T07:02:06.232Z,19.15
2019-01-11T07:04:33.212Z,20.37
2019-01-11T07:07:00.202Z,19.12
2019-01-11T07:09:28.295Z,20.88
2019-01-11T07:11:55.241Z,18.32
2019-01-11T07:14:22.196Z,19.12
2019-01-11T07:16:49.637Z,19.20
2019-01-11T07:19:16.637Z,21.00
2019-01-11T07:21:43.872Z,19.50
2019-01-11T07:24:11.048Z,19.10
2019-01-11T07:26:38.255Z,19.10
2019-01-11T07:29:05.243Z,19.05
2019-01-11T07:31:32.308Z,17.87
2019-01-11T07:33:59.246Z,17.17
2019-01-11T07:36:29.537Z,17.67
2019-01-11T07:38:57.139Z,16.67
2019-01-11T07:41:24.209Z,17.73
2019-01-11T07:43:51.424Z,16.85
2019-01-11T07:46:20.092Z,17.87
2019-01-11T07:48:49.161Z,19.20
2019-01-11T07:51:16.130Z,17.85
2019-01-11T07:53:43.170Z,18.00
2019-01-11T07:56:11.283Z,19.20
2019-01-11T07:58:39.245Z,17.37
2019-01-11T08:01:06.670Z,17.98
2019-01-11T08:03:33.738Z,16.57
2019-01-11T08:06:02.294Z,17.57
2019-01-11T08:08:29.345Z,17.07
2019-01-11T08:10:56.232Z,17.98
2019-01-11T08:13:23.304Z,17.75
2019-01-11T08:15:50.285Z,16.97
2019-01-11T08:18:17.160Z,16.75
2019-01-11T08:20:44.114Z,16.20
2019-01-11T08:23:11.253Z,16.37
2019-01-11T08:25:38.178Z,16.57
2019-01-11T08:28:05.061Z,15.70
2019-01-11T08:30:32.006Z,14.35
2019-01-11T08:32:58.901Z,15.88
2019-01-11T08:35:25.812Z,15.53
2019-01-11T08:37:52.776Z,15.90
2019-01-11T08:40:19.733Z,15.43
2019-01-11T08:42:46.807Z,14.35
2019-01-11T08:45:13.907Z,14.47
2019-01-11T08:47:40.990Z,14.83
2019-01-11T08:50:13.869Z,14.45
2019-01-11T08:52:40.903Z,14.33
2019-01-11T08:55:07.930Z,13.30
2019-01-11T08:57:35.055Z,12.68
2019-01-11T09:00:04.629Z,13.68
2019-01-11T09:02:31.694Z,12.85
2019-01-11T09:04:58.711Z,14.00
2019-01-11T09:07:25.766Z,13.53
2019-01-11T09:09:53.109Z,13.80
2019-01-11T09:12:20.146Z,12.50
2019-01-11T09:14:47.860Z,13.35
2019-01-11T09:17:15.832Z,14.23
2019-01-11T09:19:43.235Z,13.68
2019-01-11T09:22:10.117Z,13.32
2019-01-11T09:24:37.316Z,13.70
2019-01-11T09:27:04.315Z,13.93
2019-01-11T09:29:31.699Z,11.18
2019-01-11T09:31:58.931Z,14.53
2019-01-11T09:34:25.896Z,13.35
2019-01-11T09:36:53.024Z,12.47
2019-01-11T09:39:19.919Z,13.15
2019-01-11T09:41:47.017Z,11.75
2019-01-11T09:44:14.067Z,12.65
2019-01-11T09:46:43.163Z,13.80
2019-01-11T09:49:10.210Z,12.25
2019-01-11T09:51:37.258Z,12.73
2019-01-11T09:54:04.599Z,11.73
2019-01-11T09:56:31.581Z,11.10
2019-01-11T09:58:59.017Z,11.48
2019-01-11T10:01:26.049Z,12.60
2019-01-11T10:03:53.006Z,13.20
2019-01-11T10:06:20.099Z,13.05
2019-01-11T10:08:47.540Z,12.23
2019-01-11T10:11:14.627Z,13.65
2019-01-11T10:13:41.721Z,13.72
2019-01-11T10:16:08.681Z,13.85
2019-01-11T10:18:38.613Z,14.00
2019-01-11T10:21:05.720Z,14.75
2019-01-11T10:23:32.745Z,15.10
2019-01-11T10:25:59.771Z,15.48
2019-01-11T10:28:26.786Z,16.40
2019-01-11T10:30:53.815Z,15.72
2019-01-11T10:33:20.806Z,16.00
2019-01-11T10:35:48.768Z,16.52
2019-01-11T10:38:15.690Z,16.73
2019-01-11T10:40:42.733Z,16.52
2019-01-11T10:43:09.797Z,17.25
2019-01-11T10:45:36.755Z,15.48
2019-01-11T10:48:04.005Z,16.32
2019-01-11T10:50:31.286Z,17.30
2019-01-11T10:52:58.249Z,16.65
2019-01-11T10:55:25.369Z,16.48
2019-01-11T10:57:52.505Z,15.90
2019-01-11T11:00:21.948Z,16.67
2019-01-11T11:02:49.706Z,15.18
2019-01-11T11:05:16.604Z,15.48
2019-01-11T11:07:43.729Z,15.65
2019-01-11T11:10:11.809Z,16.17
2019-01-11T11:12:38.805Z,16.12
2019-01-11T11:15:07.028Z,16.10
2019-01-11T11:17:34.358Z,16.32
2019-01-11T11:20:01.487Z,14.87
2019-01-11T11:22:32.596Z,15.70
2019-01-11T11:24:59.789Z,16.42
2019-01-11T11:27:26.850Z,15.48
2019-01-11T11:29:54.008Z,15.13
2019-01-11T11:32:22.896Z,15.10
2019-01-11T11:34:50.014Z,16.27
2019-01-11T11:37:18.250Z,14.25
2019-01-11T11:39:45.437Z,15.58
2019-01-11T11:42:12.591Z,14.35
2019-01-11T11:44:39.629Z,15.45
2019-01-11T11:47:06.856Z,16.55
2019-01-11T11:49:33.893Z,16.52
2019-01-11T11:52:00.985Z,15.78
2019-01-11T11:54:28.014Z,15.90
2019-01-11T11:56:54.975Z,14.45
2019-01-11T11:59:22.434Z,14.55
2019-01-11T12:01:52.459Z,15.53
2019-01-11T12:04:18.586Z,16.40
2019-01-11T12:06:45.737Z,18.85
2019-01-11T12:09:12.765Z,15.40
2019-01-11T12:11:39.945Z,16.12
2019-01-11T12:14:06.968Z,16.17
2019-01-11T12:16:34.093Z,15.15
2019-01-11T12:19:01.364Z,15.10
2019-01-11T12:21:28.839Z,16.97
2019-01-11T12:23:55.861Z,14.90
2019-01-11T12:26:23.200Z,15.05
2019-01-11T12:28:50.322Z,15.65
2019-01-11T12:31:17.368Z,15.15
2019-01-11T12:33:44.579Z,13.13
2019-01-11T12:36:11.798Z,14.65
2019-01-11T12:38:38.999Z,14.75
2019-01-11T12:41:06.055Z,14.05
2019-01-11T12:43:33.161Z,15.43
2019-01-11T12:46:00.360Z,15.68
2019-01-11T12:48:27.386Z,14.33
2019-01-11T12:50:54.309Z,15.35
2019-01-11T12:53:21.277Z,15.55
2019-01-11T12:55:48.280Z,16.20
2019-01-11T12:58:15.248Z,14.20
2019-01-11T13:00:42.217Z,16.10
2019-01-11T13:03:09.092Z,15.50
2019-01-11T13:05:36.020Z,16.62
2019-01-11T13:08:03.051Z,15.20
2019-01-11T13:10:30.049Z,15.00
2019-01-11T13:12:57.112Z,15.58
2019-01-11T13:15:24.324Z,15.93
2019-01-11T13:17:51.404Z,15.72
2019-01-11T13:20:21.758Z,16.12
2019-01-11T13:22:49.233Z,14.53
2019-01-11T13:25:16.352Z,16.65
2019-01-11T13:27:43.289Z,16.00
2019-01-11T13:30:12.431Z,15.68
2019-01-11T13:32:39.443Z,15.58
2019-01-11T13:35:06.637Z,16.00
2019-01-11T13:37:33.714Z,16.10
2019-01-11T13:40:00.749Z,14.43
2019-01-11T13:42:27.898Z,16.30
2019-01-11T13:44:55.363Z,14.10
2019-01-11T13:47:23.228Z,13.48
2019-01-11T13:49:50.444Z,14.47
2019-01-11T13:52:17.593Z,13.90
2019-01-11T13:54:44.708Z,15.43
2019-01-11T13:57:11.738Z,14.70
2019-01-11T13:59:41.590Z,15.78
2019-01-11T14:02:07.724Z,12.65
2019-01-11T14:04:34.833Z,13.98
2019-01-11T14:07:01.845Z,14.15
2019-01-11T14:09:28.797Z,13.90
2019-01-11T14:11:56.314Z,15.43
2019-01-11T14:14:24.260Z,16.05
2019-01-11T14:16:51.332Z,16.45
2019-01-11T14:19:18.415Z,16.82
2019-01-11T14:21:45.320Z,17.07
2019-01-11T14:24:12.935Z,16.62
2019-01-11T14:26:40.153Z,18.25
2019-01-11T14:29:07.284Z,17.00
2019-01-11T14:31:34.336Z,16.23
2019-01-11T14:34:01.272Z,13.68
2019-01-11T14:36:28.487Z,15.28
2019-01-11T14:38:55.675Z,16.25
2019-01-11T14:41:23.993Z,15.68
2019-01-11T14:43:51.945Z,16.15
2019-01-11T14:46:19.181Z,17.30
2019-01-11T14:48:46.343Z,17.82
2019-01-11T14:51:13.445Z,16.40
2019-01-11T14:53:40.564Z,17.42
2019-01-11T14:56:07.524Z,16.02
2019-01-11T14:58:34.467Z,15.63
2019-01-11T15:01:01.391Z,16.87
2019-01-11T15:03:28.623Z,15.70
2019-01-11T15:05:55.953Z,14.35
2019-01-11T15:08:22.980Z,15.48
2019-01-11T15:10:49.980Z,17.10
2019-01-11T15:13:17.307Z,14.93
2019-01-11T15:15:44.470Z,14.50
2019-01-11T15:18:11.835Z,15.35
2019-01-11T15:20:38.927Z,15.93
2019-01-11T15:23:06.103Z,17.70
2019-01-11T15:25:33.960Z,16.87
2019-01-11T15:28:01.009Z,16.50
2019-01-11T15:30:28.183Z,15.83
2019-01-11T15:32:55.291Z,16.90
2019-01-11T15:35:22.269Z,16.85
2019-01-11T15:37:49.421Z,16.07
2019-01-11T15:40:20.133Z,16.23
2019-01-11T15:42:47.137Z,14.87
2019-01-11T15:45:14.130Z,15.20
2019-01-11T15:47:41.120Z,16.42
2019-01-11T15:50:10.361Z,16.15
2019-01-11T15:52:37.455Z,14.95
2019-01-11T15:55:07.993Z,16.15
2019-01-11T15:57:41.177Z,14.78
2019-01-11T16:00:15.518Z,15.43
2019-01-11T16:02:42.593Z,18.95
2019-01-11T16:05:09.829Z,15.32
2019-01-11T16:07:36.966Z,15.78
2019-01-11T16:10:10.301Z,16.62
2019-01-11T16:12:43.245Z,17.23
2019-01-11T16:15:38.560Z,16.35
2019-01-11T16:18:10.085Z,15.10
2019-01-11T16:20:37.388Z,14.38
2019-01-11T16:23:11.031Z,12.15
2019-01-11T16:25:39.042Z,12.55
2019-01-11T16:28:06.412Z,13.03
2019-01-11T16:30:33.399Z,11.88
2019-01-11T16:33:00.365Z,11.97
2019-01-11T16:35:27.477Z,10.95
2019-01-11T16:37:54.589Z,10.15
2019-01-11T16:40:21.624Z,10.43
2019-01-11T16:42:48.748Z,28.50
2019-01-11T16:45:16.241Z,11.90
2019-01-11T16:47:44.298Z,12.60
2019-01-11T16:50:13.064Z,11.60
2019-01-11T16:52:46.034Z,11.45
2019-01-11T16:55:09.194Z,11.05
2019-01-11T16:57:36.191Z,9.40
2019-01-11T17:00:06.205Z,9.80
2019-01-11T17:02:36.613Z,9.83
2019-01-11T17:05:02.405Z,10.63
2019-01-11T17:07:29.453Z,10.35
2019-01-11T17:09:56.486Z,10.18
2019-01-11T17:12:23.537Z,9.08
2019-01-11T17:14:50.552Z,10.45
2019-01-11T17:17:17.761Z,9.53
2019-01-11T17:19:44.990Z,11.03
2019-01-11T17:22:12.028Z,10.60
2019-01-11T17:24:39.039Z,9.10
2019-01-11T17:27:06.058Z,11.48
2019-01-11T17:29:33.121Z,8.90
2019-01-11T17:32:00.332Z,9.48
2019-01-11T17:34:27.336Z,8.10
2019-01-11T17:36:54.770Z,9.03
2019-01-11T17:39:21.817Z,14.80
2019-01-11T17:41:49.114Z,10.08
2019-01-11T17:44:16.739Z,9.33
2019-01-11T17:46:45.694Z,8.53
2019-01-11T17:49:13.590Z,9.20
2019-01-11T17:51:40.724Z,10.13
2019-01-11T17:54:07.773Z,10.03
2019-01-11T17:56:34.800Z,10.50
2019-01-11T17:59:01.707Z,10.60
2019-01-11T18:01:28.839Z,10.98
2019-01-11T18:03:56.089Z,10.90
2019-01-11T18:06:23.141Z,10.40
2019-01-11T18:08:50.248Z,11.03
2019-01-11T18:11:17.186Z,11.43
2019-01-11T18:13:44.434Z,10.78
2019-01-11T18:16:11.451Z,10.98
2019-01-11T18:18:38.438Z,11.00
2019-01-11T18:21:05.497Z,10.18
2019-01-11T18:23:32.540Z,9.45
2019-01-11T18:25:59.520Z,11.78
2019-01-11T18:28:26.549Z,10.65
2019-01-11T18:30:53.419Z,11.70
2019-01-11T18:33:20.530Z,10.48
2019-01-11T18:35:47.566Z,10.35
2019-01-11T18:38:14.503Z,10.93
2019-01-11T18:40:41.598Z,10.80
2019-01-11T18:43:08.632Z,10.25
2019-01-11T18:45:35.680Z,10.45
2019-01-11T18:48:02.817Z,10.38
2019-01-11T18:50:29.902Z,10.90
2019-01-11T18:52:56.964Z,9.93
2019-01-11T18:55:24.007Z,9.90
2019-01-11T18:57:50.992Z,10.18
2019-01-11T19:00:20.716Z,10.18
2019-01-11T19:02:48.070Z,10.32
2019-01-11T19:05:15.558Z,9.93
2019-01-11T19:07:46.222Z,11.03
2019-01-11T19:10:13.830Z,9.50
2019-01-11T19:12:41.750Z,11.40
2019-01-11T19:15:10.819Z,10.32
2019-01-11T19:17:37.921Z,10.75
2019-01-11T19:20:13.481Z,9.93
2019-01-11T19:22:40.426Z,9.58
2019-01-11T19:25:08.738Z,10.45
2019-01-11T19:27:35.958Z,9.80
2019-01-11T19:30:05.250Z,9.93
2019-01-11T19:32:32.295Z,11.00
2019-01-11T19:34:59.471Z,13.08
2019-01-11T19:37:26.484Z,9.08
2019-01-11T19:39:53.524Z,8.38
2019-01-11T19:42:20.974Z,8.65
2019-01-11T19:44:49.084Z,9.20
2019-01-11T19:47:17.486Z,9.68
2019-01-11T19:49:45.565Z,9.00
2019-01-11T19:52:12.836Z,8.08
2019-01-11T19:54:39.905Z,8.70
2019-01-11T19:57:07.089Z,8.35
2019-01-11T19:59:34.200Z,9.03
2019-01-11T20:02:01.250Z,7.85
2019-01-11T20:04:28.571Z,8.48
2019-01-11T20:06:55.600Z,8.18
2019-01-11T20:09:22.626Z,8.23
2019-01-11T20:11:49.669Z,8.40
2019-01-11T20:14:16.826Z,8.43
2019-01-11T20:16:44.098Z,7.85
2019-01-11T20:19:11.118Z,8.15
2019-01-11T20:21:38.253Z,7.85
2019-01-11T20:24:05.335Z,7.10
2019-01-11T20:26:32.476Z,7.42
2019-01-11T20:28:59.630Z,8.10
2019-01-11T20:31:26.851Z,7.50
2019-01-11T20:33:53.914Z,7.30
2019-01-11T20:36:20.984Z,8.35
2019-01-11T20:38:48.271Z,7.78
2019-01-11T20:41:15.675Z,8.75
2019-01-11T20:43:42.707Z,8.53
2019-01-11T20:46:09.793Z,8.30
2019-01-11T20:48:37.243Z,7.80
2019-01-11T20:51:04.365Z,8.73
2019-01-11T20:53:31.361Z,9.00
2019-01-11T20:55:58.650Z,8.18
2019-01-11T20:58:25.829Z,9.43
2019-01-11T21:00:52.903Z,7.87
2019-01-11T21:03:20.173Z,8.10
2019-01-11T21:05:47.268Z,8.10
2019-01-11T21:08:14.273Z,8.30
2019-01-11T21:10:41.543Z,8.83
2019-01-11T21:13:18.867Z,8.55
2019-01-11T21:15:46.591Z,8.10
2019-01-11T21:18:14.120Z,8.60
2019-01-11T21:20:41.903Z,7.85
2019-01-11T21:23:09.445Z,7.95
2019-01-11T21:25:37.874Z,7.87
2019-01-11T21:28:05.355Z,7.97
2019-01-11T21:30:36.672Z,8.15
2019-01-11T21:33:04.180Z,8.33
2019-01-11T21:35:31.309Z,7.75
2019-01-11T21:37:58.754Z,7.95
2019-01-11T21:40:26.418Z,8.90
2019-01-11T21:42:55.241Z,8.00
2019-01-11T21:45:22.676Z,8.90
2019-01-11T21:47:50.121Z,8.30
2019-01-11T21:50:25.044Z,8.23
2019-01-11T21:52:52.525Z,7.58
2019-01-11T21:55:20.097Z,7.80
2019-01-11T21:57:47.848Z,9.13
2019-01-11T22:00:27.713Z,8.25
2019-01-11T22:02:55.200Z,8.85
2019-01-11T22:05:22.372Z,10.32
2019-01-11T22:07:49.816Z,8.38
2019-01-11T22:10:17.006Z,8.80
2019-01-11T22:12:44.139Z,8.93
2019-01-11T22:15:14.005Z,9.13
2019-01-11T22:17:41.298Z,8.58
2019-01-11T22:20:10.606Z,9.25
2019-01-11T22:22:39.478Z,9.08
2019-01-11T22:25:07.725Z,10.00
2019-01-11T22:27:34.904Z,8.85
2019-01-11T22:30:02.302Z,9.38
2019-01-11T22:32:29.355Z,9.43
2019-01-11T22:34:56.406Z,10.20
2019-01-11T22:37:23.421Z,10.32
2019-01-11T22:39:50.694Z,9.30
2019-01-11T22:42:18.037Z,8.25
2019-01-11T22:44:45.072Z,9.20
2019-01-11T22:47:13.826Z,8.35
2019-01-11T22:49:40.832Z,8.70
2019-01-11T22:52:07.819Z,9.53
2019-01-11T22:54:35.302Z,10.65
2019-01-11T22:57:03.040Z,10.85
2019-01-11T22:59:30.920Z,11.35
2019-01-11T23:02:16.717Z,11.05
2019-01-11T23:04:43.772Z,10.35
2019-01-11T23:07:34.111Z,11.80
2019-01-11T23:10:23.549Z,9.85
2019-01-11T23:12:57.324Z,9.58
2019-01-11T23:15:38.180Z,10.72
2019-01-11T23:18:19.359Z,11.00
2019-01-11T23:20:48.671Z,12.00
2019-01-11T23:23:15.702Z,10.50
2019-01-11T23:25:42.744Z,8.75
2019-01-11T23:28:09.822Z,8.95
2019-01-11T23:30:36.858Z,9.43
2019-01-11T23:33:03.850Z,11.45
2019-01-11T23:35:31.034Z,11.10
2019-01-11T23:37:58.037Z,10.15
2019-01-11T23:40:25.215Z,11.93
2019-01-11T23:42:52.275Z,11.60
2019-01-11T23:45:19.307Z,11.75
2019-01-11T23:47:46.296Z,13.25
2019-01-11T23:50:15.587Z,12.85
2019-01-11T23:52:42.677Z,14.13
2019-01-11T23:55:10.313Z,13.10
2019-01-11T23:57:37.392Z,10.58
